• Join FlightAware (Why Join?)
  • Login
  • US Flag 
02:02PM EDT


 

Airport Tracker/Info


-or-


 

Live Flight TrackerFlight Track Log ✈ SLI524 ✈ 27-Jun-2013 ✈ MMMD / MID - MMMX / MEX

Flight Track Log - Related Links

Times and Time Zones

All times are in EDT time to prevent confusion due to time zone crossing. See the SLI524 flight status page for this flight to view local times or setup timezone preferences in your user account.

Time Position Orientation Groundspeed Altitude Reporting Facility
EDT Latitude Longitude Course Direction KTS MPH feet Rate Location/Type
07:22AM 20.8428 -90.3650 262° West  Level Estimated
07:23AM 20.8291 -90.4660 262° West  Level Estimated
07:24AM 20.8153 -90.5669 262° West  Level Estimated
07:25AM 20.8015 -90.6679 262° West  Level Estimated
07:26AM 20.7876 -90.7688 262° West  Level Estimated
07:27AM 20.7736 -90.8697 262° West  Level Estimated
07:28AM 20.7597 -90.9706 262° West  Level Estimated
07:29AM 20.7456 -91.0714 262° West  Level Estimated
07:30AM 20.7315 -91.1723 262° West  Level Estimated
07:31AM 20.7173 -91.2731 261° West  Level Estimated
07:32AM 20.7031 -91.3739 261° West  Level Estimated
07:33AM 20.6888 -91.4747 261° West  Level Estimated
07:34AM 20.6745 -91.5754 261° West  Level Estimated
07:35AM 20.6600 -91.6762 261° West  Level Estimated
07:36AM 20.6456 -91.7769 261° West  Level Estimated
07:37AM 20.6311 -91.8776 261° West  Level Estimated
07:38AM 20.6165 -91.9783 261° West  Level Estimated
07:39AM 20.6019 -92.0790 261° West  Level Estimated
07:40AM 20.5872 -92.1796 261° West  Level Estimated
07:41AM 20.5724 -92.2803 261° West  Level Estimated
07:42AM 20.5576 -92.3809 261° West  Level Estimated
07:43AM 20.5427 -92.4815 261° West  Level Estimated
07:44AM 20.5278 -92.5820 261° West  Level Estimated
07:45AM 20.5128 -92.6826 261° West  Level Estimated
07:46AM 20.4977 -92.7831 261° West  Level Estimated
07:47AM 20.4826 -92.8836 261° West  Level Estimated
07:48AM 20.4675 -92.9841 261° West  Level Estimated
07:49AM 20.4523 -93.0846 261° West  Level Estimated
07:50AM 20.4370 -93.1851 261° West  Level Estimated
07:51AM 20.4216 -93.2855 261° West  Level Estimated
07:52AM 20.4063 -93.3859 261° West  Level Estimated
07:53AM 20.3908 -93.4863 261° West  Level Estimated
07:54AM 20.3753 -93.5867 261° West  Level Estimated
07:55AM 20.3597 -93.6871 261° West  Level Estimated
07:56AM 20.3441 -93.7874 261° West  Level Estimated
07:57AM 20.3284 -93.8877 261° West  Level Estimated
07:58AM 20.3127 -93.9880 261° West  Level Estimated
07:59AM 20.2969 -94.0883 260° West  Level Estimated
08:00AM 20.2811 -94.1885 260° West  Level Estimated
08:01AM 20.2652 -94.2887 260° West  Level Estimated
08:02AM 20.2492 -94.3889 260° West  Level Estimated
08:03AM 20.2332 -94.4891 260° West  Level Estimated
08:04AM 20.2171 -94.5893 260° West  Level Estimated
08:05AM 20.2010 -94.6895 260° West  Level Estimated
08:06AM 20.1848 -94.7896 260° West  Level Estimated
08:07AM 20.1685 -94.8897 260° West  Level Estimated
08:08AM 20.1522 -94.9898 260° West  Level Estimated
08:09AM 20.1359 -95.0899 260° West  Level Estimated
08:10AM 20.1194 -95.1899 260° West  Level Estimated
08:11AM 20.1030 -95.2899 260° West  Level Estimated
08:12AM 20.0864 -95.3899 260° West  Level Estimated
08:13AM 20.0699 -95.4899 260° West  Level Estimated
08:14AM 20.0532 -95.5899 260° West  Level Estimated
08:15AM 20.0365 -95.6898 260° West  Level Estimated
08:16AM 20.0198 -95.7897 260° West  Level Estimated
08:17AM 20.0030 -95.8896 260° West  Level Estimated
08:18AM 19.9861 -95.9895 260° West  Level Estimated
08:19AM 19.9692 -96.0894 260° West  Level Estimated
08:20AM 19.9522 -96.1892 260° West  Level Estimated
08:21AM 19.9352 -96.2890 260° West  Level Estimated
08:22AM 19.9181 -96.3888 260° West  Level Estimated
08:23AM 19.9009 -96.4886 260° West  Level Estimated
08:24AM 19.8837 -96.5883 260° West  Level Estimated
08:25AM 19.8664 -96.6880 260° West  Level Estimated
08:26AM 19.8491 -96.7877 260° West  Level Estimated
08:27AM 19.8318 -96.8874 260° West  Level Estimated
08:28AM 19.8144 -96.9871 259° West  Level Estimated
08:29AM 19.7969 -97.0867 259° West  Level Estimated
08:30AM 19.7793 -97.1863 259° West  Level Estimated
08:31AM 19.7617 -97.2859 259° West  Level Estimated
08:32AM 19.7441 -97.3855 259° West  Level Estimated
08:33AM 19.7264 -97.4850 259° West  Level Estimated
08:34AM 19.7087 -97.5846 259° West  Level Estimated
08:35AM 19.6908 -97.6841 259° West  Level Estimated
08:36AM 19.6730 -97.7836 259° West  Level Estimated
08:37AM 19.6551 -97.8830 259° West  Level Estimated
08:38AM 19.6371 -97.9825 259° West  Level Estimated
08:39AM 19.6191 -98.0819 259° West  Level Estimated
08:40AM 19.6010 -98.1813 259° West  Level Estimated
08:41AM 19.5828 -98.2806 259° West  Level Estimated
08:42AM 19.5647 -98.3800 259° West  Level Estimated
08:43AM 19.5464 -98.4793 259° West  Level Estimated
08:44AM 19.5281 -98.5786 259° West  Level Estimated
08:45AM 19.5098 -98.6779 259° West  Level Estimated
08:46AM 19.4914 -98.7772 259° West  Level Estimated
08:47AM 19.4729 -98.8764 259° West  Level Estimated
08:48AM 19.4544 -98.9756 259° West  Level Estimated
08:49AM 19.4363 -99.0721 259° West  Level Estimated
08:50AM 19.4363 -99.0721 43° Northeast  Level Estimated
08:51AM 19.4363 -99.0721 43° Northeast  Level Estimated
08:52AM 19.4363 -99.0721 43° Northeast  Level Estimated
08:53AM 19.4363 -99.0721 43° Northeast  Level Estimated
08:54AM 19.4363 -99.0721 43° Northeast  Level Estimated
08:55AM 19.4363 -99.0721 43° Northeast  Level Estimated
08:56AM 19.4363 -99.0721 43° Northeast  Level Estimated
08:57AM 19.4363 -99.0721 43° Northeast  Level Estimated
08:58AM 19.4363 -99.0721 43° Northeast  Level Estimated
08:59AM 19.4363 -99.0721 43° Northeast  Level Estimated
09:00AM 19.4363 -99.0721 43° Northeast  Level Estimated
09:01AM 19.4363 -99.0721 43° Northeast  Level Estimated
09:02AM 19.4363 -99.0721 43° Northeast  Level Estimated
09:03AM 19.4363 -99.0721 43° Northeast  Level Estimated
09:04AM 19.4363 -99.0721 43° Northeast  Level Estimated
09:05AM 19.4363 -99.0721 43° Northeast  Level Estimated